createdAt,value
2022-08-30T00:00:47.960Z,16.90
2022-08-30T00:04:49.896Z,17.00
2022-08-30T00:08:52.491Z,17.10
2022-08-30T00:12:54.825Z,17.00
2022-08-30T00:16:56.796Z,16.90
2022-08-30T00:20:58.795Z,16.90
2022-08-30T00:25:01.289Z,16.90
2022-08-30T00:29:03.591Z,16.80
2022-08-30T00:33:06.061Z,16.70
2022-08-30T00:37:08.027Z,16.90
2022-08-30T00:41:09.988Z,16.90
2022-08-30T00:45:25.080Z,16.90
2022-08-30T00:49:28.453Z,17.00
2022-08-30T00:53:36.686Z,16.80
2022-08-30T00:57:40.805Z,17.00
2022-08-30T01:01:43.168Z,16.90
2022-08-30T01:05:45.871Z,16.70
2022-08-30T01:09:47.850Z,16.50
2022-08-30T01:13:51.872Z,16.30
2022-08-30T01:17:53.840Z,16.20
2022-08-30T01:22:03.185Z,16.20
2022-08-30T01:26:06.461Z,16.30
2022-08-30T01:30:09.942Z,16.30
2022-08-30T01:34:12.596Z,16.30
2022-08-30T01:38:16.053Z,16.20
2022-08-30T01:42:18.276Z,16.10
2022-08-30T01:46:24.458Z,16.30
2022-08-30T01:50:26.623Z,16.40
2022-08-30T01:54:37.009Z,16.30
2022-08-30T01:58:40.543Z,16.40
2022-08-30T02:02:42.579Z,16.50
2022-08-30T02:06:44.862Z,16.30
2022-08-30T02:10:46.763Z,16.50
2022-08-30T02:14:48.681Z,16.50
2022-08-30T02:18:51.999Z,16.50
2022-08-30T02:22:53.952Z,16.40
2022-08-30T02:26:55.939Z,16.20
2022-08-30T02:30:57.978Z,16.30
2022-08-30T02:34:59.936Z,16.60
2022-08-30T02:39:01.802Z,16.40
2022-08-30T02:43:03.724Z,16.40
2022-08-30T02:47:05.770Z,16.70
2022-08-30T02:51:11.507Z,16.60
2022-08-30T02:55:13.713Z,16.60
2022-08-30T02:59:17.035Z,16.60
2022-08-30T03:03:19.230Z,16.70
2022-08-30T03:07:21.693Z,16.70
2022-08-30T03:11:23.888Z,16.70
2022-08-30T03:15:26.200Z,16.80
2022-08-30T03:19:28.770Z,16.80
2022-08-30T03:23:31.580Z,16.60
2022-08-30T03:27:33.538Z,16.50
2022-08-30T03:31:40.650Z,16.40
2022-08-30T03:35:55.769Z,16.40
2022-08-30T03:39:57.741Z,16.20
2022-08-30T03:44:00.974Z,16.20
2022-08-30T03:48:03.702Z,16.30
2022-08-30T03:52:06.153Z,16.40
2022-08-30T03:56:08.181Z,16.40
2022-08-30T04:00:11.575Z,16.40
2022-08-30T04:04:17.415Z,16.40
2022-08-30T04:08:22.811Z,16.40
2022-08-30T04:12:24.748Z,16.20
2022-08-30T04:16:26.793Z,16.20
2022-08-30T04:20:28.786Z,16.30
2022-08-30T04:24:30.699Z,16.70
2022-08-30T04:28:34.055Z,16.70
2022-08-30T04:32:36.385Z,16.50
2022-08-30T04:36:38.354Z,16.70
2022-08-30T04:40:50.686Z,16.60
2022-08-30T04:44:52.617Z,16.70
2022-08-30T04:48:54.527Z,16.40
2022-08-30T04:52:56.432Z,16.40
2022-08-30T04:56:58.330Z,16.40
2022-08-30T05:01:00.253Z,16.50
2022-08-30T05:05:21.329Z,16.50
2022-08-30T05:09:23.346Z,16.40
2022-08-30T05:13:35.616Z,16.40
2022-08-30T05:17:39.511Z,16.30
2022-08-30T05:21:41.513Z,16.10
2022-08-30T05:25:43.558Z,16.10
2022-08-30T05:29:45.642Z,16.00
2022-08-30T05:33:49.557Z,16.20
2022-08-30T05:37:51.521Z,16.40
2022-08-30T05:41:57.582Z,16.60
2022-08-30T05:46:03.961Z,16.60
2022-08-30T05:50:07.196Z,16.60
2022-08-30T05:54:09.456Z,16.70
2022-08-30T05:58:11.317Z,16.60
2022-08-30T06:02:13.246Z,16.70
2022-08-30T06:06:16.022Z,16.70
2022-08-30T06:10:17.991Z,16.70
2022-08-30T06:14:19.995Z,16.90
2022-08-30T06:18:28.349Z,16.90
2022-08-30T06:22:30.726Z,17.10
2022-08-30T06:26:38.647Z,17.20
2022-08-30T06:30:41.638Z,17.20
2022-08-30T06:34:43.520Z,17.40
2022-08-30T06:38:46.333Z,17.30
2022-08-30T06:42:48.377Z,17.40
2022-08-30T06:46:50.481Z,17.60
2022-08-30T06:50:55.938Z,17.40
2022-08-30T06:54:59.111Z,17.50
2022-08-30T06:59:01.119Z,17.50
2022-08-30T07:03:03.175Z,17.60
2022-08-30T07:07:05.497Z,17.80
2022-08-30T07:11:08.071Z,17.80
2022-08-30T07:15:10.754Z,17.90
2022-08-30T07:19:20.330Z,18.20
2022-08-30T07:23:23.739Z,18.50
2022-08-30T07:27:26.035Z,18.60
2022-08-30T07:31:28.520Z,18.90
2022-08-30T07:35:31.557Z,18.90
2022-08-30T07:39:39.198Z,19.30
2022-08-30T07:43:46.844Z,19.60
2022-08-30T07:47:48.749Z,20.60
2022-08-30T07:51:52.019Z,21.00
2022-08-30T07:55:54.587Z,21.20
2022-08-30T07:59:56.475Z,21.60
2022-08-30T08:03:58.492Z,22.00
2022-08-30T08:08:00.449Z,22.40
2022-08-30T08:12:05.415Z,22.60
2022-08-30T08:16:07.586Z,24.20
2022-08-30T08:20:09.885Z,25.00
2022-08-30T08:24:12.146Z,26.00
2022-08-30T08:28:14.154Z,26.80
2022-08-30T08:32:16.005Z,28.60
2022-08-30T08:36:18.658Z,29.20
2022-08-30T08:40:21.358Z,29.50
2022-08-30T08:44:45.406Z,30.50
2022-08-30T08:49:01.412Z,31.10
2022-08-30T08:53:45.439Z,31.80
2022-08-30T08:57:48.300Z,31.80
2022-08-30T09:01:51.015Z,32.80
2022-08-30T09:05:54.864Z,33.00
2022-08-30T09:10:00.638Z,33.70
2022-08-30T09:14:03.227Z,34.40
2022-08-30T09:18:12.900Z,34.90
2022-08-30T09:22:38.063Z,35.10
2022-08-30T09:26:39.969Z,35.00
2022-08-30T09:31:18.123Z,35.20
2022-08-30T09:35:44.458Z,36.10
2022-08-30T09:39:46.440Z,36.20
2022-08-30T09:44:08.251Z,35.90
2022-08-30T09:48:34.048Z,36.50
2022-08-30T09:52:55.944Z,36.60
2022-08-30T09:57:21.825Z,36.60
2022-08-30T10:01:43.807Z,36.20
2022-08-30T10:06:36.899Z,36.50
2022-08-30T10:10:47.493Z,36.50
2022-08-30T10:15:01.472Z,36.50
2022-08-30T10:19:29.903Z,36.70
2022-08-30T10:23:37.461Z,36.80
2022-08-30T10:28:07.036Z,36.40
2022-08-30T10:32:32.418Z,36.70
2022-08-30T10:36:45.122Z,36.50
2022-08-30T10:41:11.787Z,36.30
2022-08-30T10:45:16.035Z,36.40
2022-08-30T10:49:22.406Z,36.30
2022-08-30T10:53:44.838Z,36.10
2022-08-30T10:57:46.985Z,36.40
2022-08-30T11:02:07.711Z,36.40
2022-08-30T11:06:38.909Z,36.40
2022-08-30T11:10:58.969Z,36.20
2022-08-30T11:15:14.770Z,36.10
2022-08-30T11:24:22.467Z,36.00
2022-08-30T11:28:36.347Z,35.90
2022-08-30T11:33:08.897Z,36.00
2022-08-30T11:37:30.162Z,36.20
2022-08-30T11:41:41.927Z,36.20
2022-08-30T11:45:47.919Z,36.40
2022-08-30T11:50:14.097Z,36.40
2022-08-30T11:54:24.780Z,36.40
2022-08-30T11:58:44.933Z,35.90
2022-08-30T12:03:07.739Z,35.80
2022-08-30T12:07:10.193Z,35.70
2022-08-30T12:11:12.096Z,35.10
2022-08-30T12:15:29.048Z,34.90
2022-08-30T12:19:34.056Z,34.50
2022-08-30T12:24:07.855Z,34.30
2022-08-30T12:28:16.707Z,34.20
2022-08-30T12:32:20.687Z,33.90
2022-08-30T12:37:00.842Z,33.30
2022-08-30T12:41:05.695Z,32.90
2022-08-30T12:45:14.659Z,32.50
2022-08-30T12:49:19.294Z,31.90
2022-08-30T12:53:23.804Z,32.20
2022-08-30T12:58:01.284Z,31.90
2022-08-30T13:02:25.232Z,31.60
2022-08-30T13:07:00.444Z,31.60
2022-08-30T13:11:08.982Z,31.60
2022-08-30T13:15:19.048Z,31.20
2022-08-30T13:20:12.328Z,30.80
2022-08-30T13:24:14.290Z,31.20
2022-08-30T13:28:16.593Z,30.90
2022-08-30T13:32:19.938Z,31.00
2022-08-30T13:36:25.623Z,31.30
2022-08-30T13:40:27.963Z,31.30
2022-08-30T13:44:29.858Z,31.20
2022-08-30T13:48:32.625Z,31.10
2022-08-30T13:52:34.540Z,31.30
2022-08-30T13:56:37.163Z,31.20
2022-08-30T14:00:39.252Z,31.20
2022-08-30T14:04:43.790Z,30.90
2022-08-30T14:08:48.554Z,30.60
2022-08-30T14:12:57.348Z,30.30
2022-08-30T14:17:02.768Z,30.40
2022-08-30T14:21:04.796Z,30.50
2022-08-30T14:25:08.107Z,30.60
2022-08-30T14:29:11.985Z,30.40
2022-08-30T14:33:14.422Z,30.30
2022-08-30T14:37:16.452Z,30.20
2022-08-30T14:41:21.669Z,30.00
2022-08-30T14:45:23.624Z,30.10
2022-08-30T14:49:25.952Z,30.10
2022-08-30T14:53:28.782Z,30.10
2022-08-30T14:57:30.691Z,30.10
2022-08-30T15:01:36.990Z,30.20
2022-08-30T15:05:39.264Z,30.10
2022-08-30T15:09:41.168Z,30.10
2022-08-30T15:13:46.450Z,29.50
2022-08-30T15:17:49.283Z,28.90
2022-08-30T15:21:51.330Z,29.00
2022-08-30T15:25:54.388Z,29.10
2022-08-30T15:29:56.298Z,28.90
2022-08-30T15:33:59.378Z,28.60
2022-08-30T15:38:01.319Z,28.80
2022-08-30T15:42:03.603Z,28.50
2022-08-30T15:46:29.523Z,28.30
2022-08-30T15:50:32.112Z,28.10
2022-08-30T15:54:34.224Z,28.20
2022-08-30T15:58:36.378Z,28.20
2022-08-30T16:02:38.583Z,27.90
2022-08-30T16:06:41.722Z,28.00
2022-08-30T16:10:43.878Z,28.00
2022-08-30T16:14:48.165Z,28.20
2022-08-30T16:18:53.695Z,28.30
2022-08-30T16:22:56.370Z,28.10
2022-08-30T16:26:58.362Z,27.90
2022-08-30T16:31:01.157Z,27.90
2022-08-30T16:35:06.545Z,27.80
2022-08-30T16:39:09.666Z,27.30
2022-08-30T16:43:11.699Z,27.00
2022-08-30T16:47:13.602Z,27.00
2022-08-30T16:51:20.617Z,26.90
2022-08-30T16:55:22.777Z,26.80
2022-08-30T16:59:25.015Z,26.70
2022-08-30T17:03:27.082Z,26.10
2022-08-30T17:07:32.755Z,25.70
2022-08-30T17:11:37.026Z,25.40
2022-08-30T17:15:39.449Z,25.40
2022-08-30T17:19:43.056Z,25.50
2022-08-30T17:23:45.070Z,25.10
2022-08-30T17:27:46.977Z,24.80
2022-08-30T17:31:50.987Z,24.70
2022-08-30T17:35:54.901Z,24.50
2022-08-30T17:40:00.166Z,24.30
2022-08-30T17:44:02.634Z,24.10
2022-08-30T17:48:06.991Z,23.80
2022-08-30T17:52:11.406Z,23.80
2022-08-30T17:56:14.444Z,23.60
2022-08-30T18:00:16.790Z,23.40
2022-08-30T18:04:20.731Z,23.20
2022-08-30T18:08:22.635Z,22.90
2022-08-30T18:12:24.629Z,22.90
2022-08-30T18:16:28.877Z,22.80
2022-08-30T18:20:31.964Z,22.70
2022-08-30T18:24:34.638Z,22.60
2022-08-30T18:28:36.741Z,22.50
2022-08-30T18:32:38.691Z,22.50
2022-08-30T18:36:41.464Z,22.40
2022-08-30T18:40:43.742Z,22.40
2022-08-30T18:44:45.783Z,22.10
2022-08-30T18:48:47.958Z,22.00
2022-08-30T18:52:49.862Z,21.80
2022-08-30T18:56:51.902Z,21.70
2022-08-30T19:00:56.819Z,21.60
2022-08-30T19:04:59.195Z,21.50
2022-08-30T19:09:01.416Z,21.50
2022-08-30T19:13:03.388Z,21.50
2022-08-30T19:17:07.092Z,21.30
2022-08-30T19:21:12.662Z,21.10
2022-08-30T19:25:17.702Z,21.10
2022-08-30T19:29:19.866Z,21.10
2022-08-30T19:33:21.785Z,21.00
2022-08-30T19:37:24.174Z,21.00
2022-08-30T19:41:26.246Z,20.90
2022-08-30T19:45:28.207Z,20.90
2022-08-30T19:49:30.242Z,20.80
2022-08-30T19:53:33.707Z,20.70
2022-08-30T19:57:35.937Z,20.60
2022-08-30T20:01:37.975Z,20.60
2022-08-30T20:05:40.013Z,20.60
2022-08-30T20:09:41.917Z,20.50
2022-08-30T20:13:44.026Z,20.40
2022-08-30T20:18:03.148Z,20.30
2022-08-30T20:22:08.370Z,20.30
2022-08-30T20:26:12.305Z,20.50
2022-08-30T20:30:15.555Z,20.40
2022-08-30T20:34:17.462Z,20.30
2022-08-30T20:38:21.737Z,20.40
2022-08-30T20:42:25.666Z,20.20
2022-08-30T20:46:33.407Z,20.00
2022-08-30T20:50:38.862Z,19.90
2022-08-30T20:54:40.940Z,19.70
2022-08-30T20:58:43.153Z,19.70
2022-08-30T21:02:46.847Z,19.60
2022-08-30T21:06:50.338Z,19.70
2022-08-30T21:10:54.637Z,19.90
2022-08-30T21:14:56.590Z,19.80
2022-08-30T21:18:58.561Z,19.80
2022-08-30T21:23:00.555Z,19.60
2022-08-30T21:27:03.016Z,19.50
2022-08-30T21:31:11.763Z,19.30
2022-08-30T21:35:32.547Z,19.10
2022-08-30T21:39:34.740Z,19.00
2022-08-30T21:43:36.697Z,19.20
2022-08-30T21:47:39.033Z,19.30
2022-08-30T21:51:44.940Z,19.40
2022-08-30T21:55:48.181Z,19.60
2022-08-30T21:59:50.423Z,19.50
2022-08-30T22:03:54.267Z,19.40
2022-08-30T22:07:56.154Z,19.50
2022-08-30T22:11:58.083Z,19.60
2022-08-30T22:16:00.234Z,19.40
2022-08-30T22:20:02.349Z,19.30
2022-08-30T22:24:05.142Z,19.00
2022-08-30T22:28:07.076Z,18.90
2022-08-30T22:32:09.119Z,18.90
2022-08-30T22:36:14.634Z,18.90
2022-08-30T22:40:16.598Z,19.00
2022-08-30T22:44:18.935Z,19.20
2022-08-30T22:48:20.832Z,19.10
2022-08-30T22:52:25.560Z,19.10
2022-08-30T22:56:27.708Z,19.10
2022-08-30T23:00:29.607Z,19.10
2022-08-30T23:04:32.653Z,19.10
2022-08-30T23:08:34.550Z,19.10
2022-08-30T23:12:37.042Z,19.20
2022-08-30T23:16:39.035Z,19.00
2022-08-30T23:20:40.988Z,18.90
2022-08-30T23:25:01.592Z,18.90
2022-08-30T23:29:22.957Z,19.00
2022-08-30T23:33:43.341Z,18.90
2022-08-30T23:38:03.477Z,19.00
2022-08-30T23:42:23.848Z,19.20
2022-08-30T23:46:44.118Z,19.20
2022-08-30T23:51:04.355Z,19.20
2022-08-30T23:55:26.564Z,19.20
2022-08-30T23:59:47.144Z,19.40
